createdAt,value
2019-06-26T00:01:30.238Z,4.67
2019-06-26T00:05:50.633Z,1.33
2019-06-26T00:10:11.862Z,3.17
2019-06-26T00:14:32.785Z,1.50
2019-06-26T00:18:53.294Z,1.77
2019-06-26T00:23:13.665Z,2.70
2019-06-26T00:27:34.691Z,2.47
2019-06-26T00:31:55.296Z,3.10
2019-06-26T00:36:16.268Z,1.60
2019-06-26T00:40:37.806Z,3.60
2019-06-26T00:44:58.601Z,1.97
2019-06-26T00:49:20.179Z,1.93
2019-06-26T00:53:41.361Z,2.00
2019-06-26T00:58:01.622Z,4.63
2019-06-26T01:02:22.672Z,3.00
2019-06-26T01:06:46.934Z,6.03
2019-06-26T01:11:08.001Z,2.93
2019-06-26T01:15:28.866Z,4.23
2019-06-26T01:19:49.853Z,2.20
2019-06-26T01:24:09.996Z,3.30
2019-06-26T01:28:30.652Z,3.47
2019-06-26T01:32:53.118Z,3.40
2019-06-26T01:37:14.135Z,2.00
2019-06-26T01:41:34.600Z,3.50
2019-06-26T01:45:55.453Z,1.80
2019-06-26T01:50:16.933Z,6.67
2019-06-26T01:54:37.703Z,2.03
2019-06-26T01:58:59.059Z,3.00
2019-06-26T02:03:19.854Z,3.97
2019-06-26T02:07:41.122Z,4.37
2019-06-26T02:12:01.466Z,2.87
2019-06-26T02:16:21.752Z,3.50
2019-06-26T02:20:42.692Z,1.60
2019-06-26T02:25:03.739Z,3.40
2019-06-26T02:29:24.342Z,5.10
2019-06-26T02:33:45.406Z,3.30
2019-06-26T02:38:05.365Z,4.90
2019-06-26T02:42:26.207Z,1.70
2019-06-26T02:46:47.002Z,4.47
2019-06-26T02:51:07.339Z,3.83
2019-06-26T02:55:28.091Z,2.67
2019-06-26T02:59:49.269Z,2.03
2019-06-26T03:04:10.429Z,2.53
2019-06-26T03:08:31.717Z,7.93
2019-06-26T03:12:52.283Z,4.70
2019-06-26T03:17:13.436Z,1.40
2019-06-26T03:21:33.823Z,2.90
2019-06-26T03:25:54.045Z,4.73
2019-06-26T03:30:14.664Z,2.47
2019-06-26T03:34:35.451Z,3.03
2019-06-26T03:38:56.162Z,3.10
2019-06-26T03:43:16.900Z,2.90
2019-06-26T03:47:37.775Z,2.60
2019-06-26T03:51:58.977Z,3.00
2019-06-26T03:56:19.516Z,2.07
2019-06-26T04:00:41.794Z,3.73
2019-06-26T04:05:02.289Z,3.33
2019-06-26T04:09:22.719Z,1.67
2019-06-26T04:13:43.056Z,5.00
2019-06-26T04:18:04.146Z,2.30
2019-06-26T04:22:24.918Z,3.30
2019-06-26T04:26:45.573Z,1.47
2019-06-26T04:31:06.690Z,0.93
2019-06-26T04:35:27.955Z,3.20
2019-06-26T04:39:48.932Z,2.87
2019-06-26T04:44:10.074Z,1.40
2019-06-26T04:48:30.466Z,4.53
2019-06-26T04:52:50.688Z,2.03
2019-06-26T04:57:11.146Z,1.50
2019-06-26T05:01:32.333Z,1.20
2019-06-26T05:05:52.478Z,2.17
2019-06-26T05:10:15.477Z,3.93
2019-06-26T05:14:35.748Z,2.90
2019-06-26T05:18:56.407Z,2.43
2019-06-26T05:23:17.125Z,1.70
2019-06-26T05:27:37.688Z,2.03
2019-06-26T05:31:58.512Z,1.13
2019-06-26T05:36:19.138Z,1.57
2019-06-26T05:40:40.012Z,1.47
2019-06-26T05:45:00.728Z,0.80
2019-06-26T05:49:21.297Z,2.67
2019-06-26T05:53:42.530Z,1.10
2019-06-26T05:58:03.318Z,1.00
2019-06-26T06:02:23.678Z,1.67
2019-06-26T06:06:44.187Z,1.87
2019-06-26T06:11:04.689Z,2.80
2019-06-26T06:15:28.962Z,1.63
2019-06-26T06:19:49.601Z,3.20
2019-06-26T06:24:11.409Z,3.10
2019-06-26T06:28:31.452Z,0.80
2019-06-26T06:32:51.670Z,1.90
2019-06-26T06:37:11.933Z,1.17
2019-06-26T06:41:32.745Z,2.90
2019-06-26T06:45:53.426Z,0.97
2019-06-26T06:50:14.610Z,0.80
2019-06-26T06:54:35.093Z,0.80
2019-06-26T06:58:56.450Z,0.93
2019-06-26T07:03:17.629Z,0.90
2019-06-26T07:07:38.528Z,2.17
2019-06-26T07:11:59.519Z,1.70
2019-06-26T07:16:20.450Z,1.77
2019-06-26T07:20:44.565Z,0.70
2019-06-26T07:25:04.014Z,2.00
2019-06-26T07:29:26.581Z,1.33
2019-06-26T07:33:47.153Z,1.20
2019-06-26T07:38:08.471Z,1.20
2019-06-26T07:42:29.026Z,2.27
2019-06-26T07:46:49.513Z,1.60
2019-06-26T07:51:10.211Z,0.53
2019-06-26T07:55:32.796Z,0.60
2019-06-26T07:59:53.576Z,1.67
2019-06-26T08:04:14.443Z,1.77
2019-06-26T08:08:37.870Z,4.53
2019-06-26T08:12:58.427Z,1.77
2019-06-26T08:17:19.201Z,0.90
2019-06-26T08:21:39.886Z,1.73
2019-06-26T08:26:03.341Z,1.47
2019-06-26T08:30:25.122Z,0.83
2019-06-26T08:34:46.209Z,2.50
2019-06-26T08:39:07.799Z,2.40
2019-06-26T08:43:31.221Z,2.17
2019-06-26T08:47:50.965Z,3.10
2019-06-26T08:52:11.542Z,1.07
2019-06-26T08:56:33.282Z,1.07
2019-06-26T09:00:53.733Z,0.77
2019-06-26T09:05:13.890Z,2.47
2019-06-26T09:09:34.223Z,1.53
2019-06-26T09:13:55.477Z,2.20
2019-06-26T09:18:31.059Z,1.57
2019-06-26T09:22:38.418Z,1.37
2019-06-26T09:26:58.751Z,2.07
2019-06-26T09:31:19.443Z,0.57
2019-06-26T09:35:40.190Z,4.83
2019-06-26T09:40:00.891Z,0.50
2019-06-26T09:44:20.685Z,1.53
2019-06-26T09:48:52.210Z,1.00
2019-06-26T09:53:05.407Z,2.20
2019-06-26T09:57:24.740Z,0.93
2019-06-26T10:01:45.922Z,1.53
2019-06-26T10:06:07.233Z,2.60
2019-06-26T10:10:28.447Z,1.57
2019-06-26T10:14:49.408Z,2.80
2019-06-26T10:19:11.090Z,1.23
2019-06-26T10:23:32.196Z,0.97
2019-06-26T10:27:52.616Z,1.37
2019-06-26T10:32:13.765Z,1.37
2019-06-26T10:36:36.127Z,1.47
2019-06-26T10:40:57.172Z,0.63
2019-06-26T10:45:18.020Z,0.73
2019-06-26T10:49:38.241Z,1.00
2019-06-26T10:53:59.380Z,1.00
2019-06-26T10:58:20.220Z,4.57
2019-06-26T11:02:41.118Z,2.10
2019-06-26T11:07:01.751Z,0.80
2019-06-26T11:11:21.928Z,1.20
2019-06-26T11:15:42.511Z,1.03
2019-06-26T11:20:03.321Z,4.33
2019-06-26T11:24:23.209Z,0.77
2019-06-26T11:28:44.031Z,1.57
2019-06-26T11:33:04.436Z,1.80
2019-06-26T11:37:25.235Z,0.63
2019-06-26T11:41:46.653Z,1.03
2019-06-26T11:46:07.428Z,1.03
2019-06-26T11:50:28.579Z,2.30
2019-06-26T11:55:01.972Z,3.23
2019-06-26T11:59:11.567Z,1.63
2019-06-26T12:03:32.244Z,0.90
2019-06-26T12:07:53.267Z,1.00
2019-06-26T12:12:15.058Z,2.27
2019-06-26T12:16:35.745Z,2.40
2019-06-26T12:20:59.355Z,1.10
2019-06-26T12:25:20.994Z,0.50
2019-06-26T12:29:42.034Z,1.70
2019-06-26T12:34:03.250Z,1.10
2019-06-26T12:38:24.794Z,3.80
2019-06-26T12:42:45.799Z,1.90
2019-06-26T12:47:06.446Z,0.83
2019-06-26T12:51:27.509Z,0.77
2019-06-26T12:55:48.066Z,1.17
2019-06-26T13:00:09.429Z,0.70
2019-06-26T13:04:29.232Z,0.70
2019-06-26T13:08:50.240Z,0.70
2019-06-26T13:13:10.704Z,0.60
2019-06-26T13:17:30.816Z,2.73
2019-06-26T13:21:51.278Z,1.20
2019-06-26T13:26:12.510Z,0.80
2019-06-26T13:30:38.898Z,1.17
2019-06-26T13:34:59.941Z,2.10
2019-06-26T13:39:20.536Z,1.53
2019-06-26T13:43:41.223Z,0.80
2019-06-26T13:48:02.500Z,1.90
2019-06-26T13:52:24.673Z,0.60
2019-06-26T13:56:45.435Z,1.20
2019-06-26T14:01:06.641Z,0.70
2019-06-26T14:05:29.577Z,3.97
2019-06-26T14:09:49.602Z,0.30
2019-06-26T14:14:09.775Z,1.30
2019-06-26T14:18:30.673Z,0.53
2019-06-26T14:22:51.565Z,2.27
2019-06-26T14:27:12.625Z,1.20
2019-06-26T14:31:33.623Z,1.17
2019-06-26T14:35:54.664Z,2.67
2019-06-26T14:40:18.193Z,1.60
2019-06-26T14:44:41.321Z,1.63
2019-06-26T14:49:04.224Z,2.70
2019-06-26T14:53:25.084Z,4.43
2019-06-26T14:57:45.663Z,1.83
2019-06-26T15:02:07.083Z,2.37
2019-06-26T15:06:28.140Z,5.93
2019-06-26T15:10:48.401Z,2.90
2019-06-26T15:15:09.339Z,1.90
2019-06-26T15:19:29.753Z,3.13
2019-06-26T15:23:50.309Z,1.63
2019-06-26T15:28:11.415Z,3.33
2019-06-26T15:32:32.903Z,2.10
2019-06-26T15:36:53.737Z,1.50
2019-06-26T15:41:13.833Z,3.23
2019-06-26T15:45:34.899Z,4.07
2019-06-26T15:49:55.785Z,3.80
2019-06-26T15:54:17.508Z,1.70
2019-06-26T15:58:37.500Z,2.37
2019-06-26T16:02:58.472Z,2.93
2019-06-26T16:07:19.143Z,2.87
2019-06-26T16:11:39.798Z,2.53
2019-06-26T16:16:00.678Z,3.07
2019-06-26T16:20:21.057Z,2.27
2019-06-26T16:24:41.666Z,4.30
2019-06-26T16:29:02.754Z,3.17
2019-06-26T16:33:24.115Z,2.70
2019-06-26T16:37:45.005Z,1.80
2019-06-26T16:42:06.133Z,4.80
2019-06-26T16:46:26.653Z,6.07
2019-06-26T16:50:47.449Z,3.90
2019-06-26T16:55:08.212Z,6.13
2019-06-26T16:59:28.676Z,4.97
2019-06-26T17:03:49.417Z,2.23
2019-06-26T17:08:09.519Z,3.53
2019-06-26T17:12:30.604Z,3.00
2019-06-26T17:16:51.761Z,2.37
2019-06-26T17:21:11.947Z,3.07
2019-06-26T17:25:34.932Z,3.43
2019-06-26T17:29:54.963Z,4.07
2019-06-26T17:34:16.102Z,3.57
2019-06-26T17:38:37.875Z,7.27
2019-06-26T17:43:11.376Z,4.70
2019-06-26T17:47:20.491Z,5.03
2019-06-26T17:51:41.734Z,4.97
2019-06-26T17:56:07.730Z,3.00
2019-06-26T18:00:32.281Z,5.10
2019-06-26T18:04:55.025Z,3.23
2019-06-26T18:09:14.767Z,7.27
2019-06-26T18:13:35.298Z,2.93
2019-06-26T18:17:55.595Z,2.63
2019-06-26T18:22:16.052Z,4.27
2019-06-26T18:26:36.571Z,3.93
2019-06-26T18:30:57.375Z,6.27
2019-06-26T18:35:17.879Z,6.17
2019-06-26T18:39:38.066Z,5.17
2019-06-26T18:43:58.249Z,5.80
2019-06-26T18:48:20.261Z,4.93
2019-06-26T18:52:43.287Z,3.87
2019-06-26T18:57:11.470Z,4.63
2019-06-26T19:01:34.240Z,3.13
2019-06-26T19:05:54.409Z,6.13
2019-06-26T19:10:15.209Z,4.67
2019-06-26T19:14:36.649Z,4.27
2019-06-26T19:18:58.081Z,5.57
2019-06-26T19:23:22.501Z,4.63
2019-06-26T19:27:44.627Z,5.83
2019-06-26T19:32:08.220Z,5.57
2019-06-26T19:36:28.908Z,3.93
2019-06-26T19:40:48.890Z,6.67
2019-06-26T19:45:11.111Z,4.00
2019-06-26T19:49:32.930Z,5.30
2019-06-26T19:53:53.705Z,7.47
2019-06-26T19:58:13.891Z,5.50
2019-06-26T20:02:34.117Z,7.80
2019-06-26T20:06:54.512Z,7.80
2019-06-26T20:11:15.042Z,6.43
2019-06-26T20:15:35.827Z,6.80
2019-06-26T20:19:56.521Z,9.13
2019-06-26T20:24:16.699Z,8.73
2019-06-26T20:28:37.188Z,5.70
2019-06-26T20:32:57.581Z,4.50
2019-06-26T20:37:18.696Z,5.87
2019-06-26T20:41:39.435Z,4.87
2019-06-26T20:45:59.381Z,3.53
2019-06-26T20:50:19.296Z,4.27
2019-06-26T20:54:40.057Z,3.67
2019-06-26T20:59:00.943Z,6.37
2019-06-26T21:03:21.494Z,5.53
2019-06-26T21:07:41.962Z,4.77
2019-06-26T21:12:02.773Z,4.90
2019-06-26T21:16:22.808Z,3.93
2019-06-26T21:20:43.375Z,7.77
2019-06-26T21:25:17.543Z,8.07
2019-06-26T21:29:25.973Z,4.93
2019-06-26T21:33:46.007Z,6.60
2019-06-26T21:38:06.714Z,11.67
2019-06-26T21:42:28.008Z,5.90
2019-06-26T21:46:48.806Z,4.97
2019-06-26T21:51:09.047Z,6.40
2019-06-26T21:55:34.367Z,5.83
2019-06-26T22:00:11.019Z,6.43
2019-06-26T22:04:49.200Z,7.73
2019-06-26T22:09:12.607Z,6.13
2019-06-26T22:13:34.367Z,9.67
2019-06-26T22:17:55.240Z,7.63
2019-06-26T22:22:15.824Z,6.77
2019-06-26T22:26:37.784Z,7.10
2019-06-26T22:30:58.464Z,8.60
2019-06-26T22:35:19.140Z,8.07
2019-06-26T22:39:40.917Z,7.30
2019-06-26T22:44:01.688Z,10.13
2019-06-26T22:48:21.684Z,6.83
2019-06-26T22:52:42.543Z,9.10
2019-06-26T22:57:03.561Z,8.13
2019-06-26T23:01:24.062Z,6.93
2019-06-26T23:05:44.773Z,7.10
2019-06-26T23:10:05.282Z,11.00
2019-06-26T23:14:25.981Z,6.20
2019-06-26T23:18:46.831Z,11.87
2019-06-26T23:23:08.040Z,8.37
2019-06-26T23:27:27.812Z,10.60
2019-06-26T23:31:48.333Z,9.97
2019-06-26T23:36:10.424Z,8.70
2019-06-26T23:40:30.736Z,13.27
2019-06-26T23:44:51.216Z,12.20
2019-06-26T23:49:11.681Z,10.93
2019-06-26T23:53:32.674Z,8.57
2019-06-26T23:57:59.012Z,15.47
